sensor_id;sensor_type;location;lat;lon;timestamp;pressure;altitude;pressure_sealevel;temperature;humidity
48517;BME280;34310;51.904;4.256;2023-03-20T00:02:03;102037.94;;;15.77;59.73
48517;BME280;34310;51.904;4.256;2023-03-20T00:04:31;102043.97;;;15.76;59.76
48517;BME280;34310;51.904;4.256;2023-03-20T00:06:59;102043.06;;;15.75;59.63
48517;BME280;34310;51.904;4.256;2023-03-20T00:09:27;102049.97;;;15.75;59.68
48517;BME280;34310;51.904;4.256;2023-03-20T00:11:55;102060.38;;;15.75;59.87
48517;BME280;34310;51.904;4.256;2023-03-20T00:14:23;102064.69;;;15.74;59.85
48517;BME280;34310;51.904;4.256;2023-03-20T00:16:51;102067.28;;;15.74;59.80
48517;BME280;34310;51.904;4.256;2023-03-20T00:19:22;102067.19;;;15.73;59.74
48517;BME280;34310;51.904;4.256;2023-03-20T00:21:50;102069.78;;;15.73;59.74
48517;BME280;34310;51.904;4.256;2023-03-20T00:24:18;102068.88;;;15.72;59.77
48517;BME280;34310;51.904;4.256;2023-03-20T00:26:47;102062.78;;;15.72;59.68
48517;BME280;34310;51.904;4.256;2023-03-20T00:29:24;102060.16;;;15.72;59.73
48517;BME280;34310;51.904;4.256;2023-03-20T00:31:53;102045.34;;;15.71;59.67
48517;BME280;34310;51.904;4.256;2023-03-20T00:34:23;102036.53;;;15.69;59.79
48517;BME280;34310;51.904;4.256;2023-03-20T00:36:52;102047.84;;;15.69;59.82
48517;BME280;34310;51.904;4.256;2023-03-20T00:39:20;102059.16;;;15.70;59.94
48517;BME280;34310;51.904;4.256;2023-03-20T00:41:53;102041.75;;;15.69;59.67
48517;BME280;34310;51.904;4.256;2023-03-20T00:44:37;102028.72;;;15.69;59.83
48517;BME280;34310;51.904;4.256;2023-03-20T00:47:18;102028.63;;;15.67;59.90
48517;BME280;34310;51.904;4.256;2023-03-20T00:49:48;102023.41;;;15.67;59.78
48517;BME280;34310;51.904;4.256;2023-03-20T00:52:19;102020.81;;;15.67;59.88
48517;BME280;34310;51.904;4.256;2023-03-20T00:54:47;102007.78;;;15.67;59.70
48517;BME280;34310;51.904;4.256;2023-03-20T00:57:26;102006.88;;;15.67;59.68
48517;BME280;34310;51.904;4.256;2023-03-20T01:00:06;102009.38;;;15.65;59.66
48517;BME280;34310;51.904;4.256;2023-03-20T01:02:34;102012.78;;;15.64;59.97
48517;BME280;34310;51.904;4.256;2023-03-20T01:05:02;102016.28;;;15.65;59.81
48517;BME280;34310;51.904;4.256;2023-03-20T01:07:31;102026.59;;;15.63;59.78
48517;BME280;34310;51.904;4.256;2023-03-20T01:09:59;102033.50;;;15.63;59.72
48517;BME280;34310;51.904;4.256;2023-03-20T01:12:27;102043.03;;;15.62;59.76
48517;BME280;34310;51.904;4.256;2023-03-20T01:14:56;102050.81;;;15.62;59.80
48517;BME280;34310;51.904;4.256;2023-03-20T01:17:25;102064.66;;;15.61;59.85
48517;BME280;34310;51.904;4.256;2023-03-20T01:19:54;102058.50;;;15.61;59.69
48517;BME280;34310;51.904;4.256;2023-03-20T01:22:21;102065.41;;;15.60;59.88
48517;BME280;34310;51.904;4.256;2023-03-20T01:24:48;102069.72;;;15.60;59.66
48517;BME280;34310;51.904;4.256;2023-03-20T01:27:18;102077.53;;;15.60;59.77
48517;BME280;34310;51.904;4.256;2023-03-20T01:29:45;102093.13;;;15.60;59.69
48517;BME280;34310;51.904;4.256;2023-03-20T01:32:15;102083.38;;;15.57;59.80
48517;BME280;34310;51.904;4.256;2023-03-20T01:34:43;102075.72;;;15.59;59.94
48517;BME280;34310;51.904;4.256;2023-03-20T01:37:13;102065.16;;;15.57;59.86
48517;BME280;34310;51.904;4.256;2023-03-20T01:39:43;102067.75;;;15.57;59.84
48517;BME280;34310;51.904;4.256;2023-03-20T01:42:14;102059.97;;;15.57;59.70
48517;BME280;34310;51.904;4.256;2023-03-20T01:44:41;102060.75;;;15.56;59.83
48517;BME280;34310;51.904;4.256;2023-03-20T01:47:18;102068.56;;;15.56;59.89
48517;BME280;34310;51.904;4.256;2023-03-20T01:52:38;102055.44;;;15.55;59.79
48517;BME280;34310;51.904;4.256;2023-03-20T01:55:06;102051.94;;;15.54;59.94
48517;BME280;34310;51.904;4.256;2023-03-20T01:57:33;102043.22;;;15.54;59.75
48517;BME280;34310;51.904;4.256;2023-03-20T02:00:04;102037.13;;;15.53;59.77
48517;BME280;34310;51.904;4.256;2023-03-20T02:02:32;102032.81;;;15.54;59.75
48517;BME280;34310;51.904;4.256;2023-03-20T02:05:07;102031.81;;;15.52;59.69
48517;BME280;34310;51.904;4.256;2023-03-20T02:07:36;102029.19;;;15.52;59.84
48517;BME280;34310;51.904;4.256;2023-03-20T02:10:10;102021.38;;;15.52;59.83
48517;BME280;34310;51.904;4.256;2023-03-20T02:12:38;102016.97;;;15.50;59.93
48517;BME280;34310;51.904;4.256;2023-03-20T02:15:07;102023.09;;;15.51;59.93
48517;BME280;34310;51.904;4.256;2023-03-20T02:17:35;102018.69;;;15.50;59.86
48517;BME280;34310;51.904;4.256;2023-03-20T02:26:15;102006.47;;;15.49;59.77
48517;BME280;34310;51.904;4.256;2023-03-20T02:29:11;102002.97;;;15.48;59.95
48517;BME280;34310;51.904;4.256;2023-03-20T02:32:18;102007.16;;;15.46;59.89
48517;BME280;34310;51.904;4.256;2023-03-20T02:46:30;102019.16;;;15.44;59.90
48517;BME280;34310;51.904;4.256;2023-03-20T02:49:21;102019.16;;;15.44;59.79
48517;BME280;34310;51.904;4.256;2023-03-20T02:52:14;102017.38;;;15.43;59.79
48517;BME280;34310;51.904;4.256;2023-03-20T02:54:58;102012.06;;;15.42;59.90
48517;BME280;34310;51.904;4.256;2023-03-20T03:00:41;102001.53;;;15.40;59.89
48517;BME280;34310;51.904;4.256;2023-03-20T03:03:15;101997.22;;;15.41;60.00
48517;BME280;34310;51.904;4.256;2023-03-20T03:05:50;101991.13;;;15.40;60.07
48517;BME280;34310;51.904;4.256;2023-03-20T03:08:21;101984.13;;;15.39;59.96
48517;BME280;34310;51.904;4.256;2023-03-20T03:10:58;101997.94;;;15.38;59.94
48517;BME280;34310;51.904;4.256;2023-03-20T03:13:30;101993.63;;;15.39;59.99
48517;BME280;34310;51.904;4.256;2023-03-20T03:16:36;101981.41;;;15.38;59.78
48517;BME280;34310;51.904;4.256;2023-03-20T03:19:09;101984.91;;;15.38;59.81
48517;BME280;34310;51.904;4.256;2023-03-20T03:21:40;101976.22;;;15.38;59.83
48517;BME280;34310;51.904;4.256;2023-03-20T03:24:31;101967.50;;;15.37;59.91
48517;BME280;34310;51.904;4.256;2023-03-20T03:27:33;101971.81;;;15.37;59.97
48517;BME280;34310;51.904;4.256;2023-03-20T03:30:17;101963.09;;;15.36;59.85
48517;BME280;34310;51.904;4.256;2023-03-20T03:32:56;101962.19;;;15.36;60.00
48517;BME280;34310;51.904;4.256;2023-03-20T03:35:27;101958.69;;;15.35;59.92
48517;BME280;34310;51.904;4.256;2023-03-20T03:43:50;101964.69;;;15.34;59.83
48517;BME280;34310;51.904;4.256;2023-03-20T03:49:20;101964.59;;;15.33;60.00
48517;BME280;34310;51.904;4.256;2023-03-20T03:51:52;101963.66;;;15.32;59.99
48517;BME280;34310;51.904;4.256;2023-03-20T03:55:12;101959.25;;;15.31;59.89
48517;BME280;34310;51.904;4.256;2023-03-20T03:57:14;101949.72;;;15.32;59.98
48517;BME280;34310;51.904;4.256;2023-03-20T03:59:46;101934.00;;;15.30;60.05
48517;BME280;34310;51.904;4.256;2023-03-20T04:02:17;101934.91;;;15.31;59.97
48517;BME280;34310;51.904;4.256;2023-03-20T04:04:48;101933.13;;;15.30;59.83
48517;BME280;34310;51.904;4.256;2023-03-20T04:07:17;101941.81;;;15.30;59.88
48517;BME280;34310;51.904;4.256;2023-03-20T04:09:44;101939.13;;;15.29;59.91
48517;BME280;34310;51.904;4.256;2023-03-20T04:12:35;101942.63;;;15.29;59.89
48517;BME280;34310;51.904;4.256;2023-03-20T04:15:04;101947.81;;;15.29;59.84
48517;BME280;34310;51.904;4.256;2023-03-20T04:17:31;101945.13;;;15.28;59.83
48517;BME280;34310;51.904;4.256;2023-03-20T04:19:59;101952.03;;;15.27;59.81
48517;BME280;34310;51.904;4.256;2023-03-20T04:22:27;101952.03;;;15.27;59.94
48517;BME280;34310;51.904;4.256;2023-03-20T04:24:54;101948.53;;;15.27;59.98
48517;BME280;34310;51.904;4.256;2023-03-20T04:27:21;101951.13;;;15.27;59.95
48517;BME280;34310;51.904;4.256;2023-03-20T04:29:49;101943.31;;;15.27;59.91
48517;BME280;34310;51.904;4.256;2023-03-20T04:32:16;101949.31;;;15.26;59.94
48517;BME280;34310;51.904;4.256;2023-03-20T04:34:43;101944.13;;;15.26;59.95
48517;BME280;34310;51.904;4.256;2023-03-20T04:37:11;101939.72;;;15.25;59.97
48517;BME280;34310;51.904;4.256;2023-03-20T04:39:39;101943.22;;;15.25;60.01
48517;BME280;34310;51.904;4.256;2023-03-20T04:42:08;101937.09;;;15.25;60.00
48517;BME280;34310;51.904;4.256;2023-03-20T04:44:36;101937.09;;;15.25;60.04
48517;BME280;34310;51.904;4.256;2023-03-20T04:47:03;101932.69;;;15.24;60.04
48517;BME280;34310;51.904;4.256;2023-03-20T04:49:30;101929.19;;;15.23;60.05
48517;BME280;34310;51.904;4.256;2023-03-20T04:51:58;101922.19;;;15.22;60.02
48517;BME280;34310;51.904;4.256;2023-03-20T04:54:25;101916.97;;;15.22;60.04
48517;BME280;34310;51.904;4.256;2023-03-20T04:56:52;101915.28;;;15.23;59.97
48517;BME280;34310;51.904;4.256;2023-03-20T04:59:20;101915.19;;;15.21;59.86
48517;BME280;34310;51.904;4.256;2023-03-20T05:01:47;101911.69;;;15.21;59.97
48517;BME280;34310;51.904;4.256;2023-03-20T05:04:15;101912.56;;;15.21;59.95
48517;BME280;34310;51.904;4.256;2023-03-20T05:06:42;101908.28;;;15.22;59.90
48517;BME280;34310;51.904;4.256;2023-03-20T05:09:10;101901.28;;;15.21;60.06
48517;BME280;34310;51.904;4.256;2023-03-20T05:11:37;101897.78;;;15.20;60.05
48517;BME280;34310;51.904;4.256;2023-03-20T05:14:04;101889.06;;;15.19;60.00
48517;BME280;34310;51.904;4.256;2023-03-20T05:16:32;101889.84;;;15.18;59.97
48517;BME280;34310;51.904;4.256;2023-03-20T05:19:00;101904.56;;;15.18;59.90
48517;BME280;34310;51.904;4.256;2023-03-20T05:21:27;101910.66;;;15.18;59.98
48517;BME280;34310;51.904;4.256;2023-03-20T05:23:54;101900.16;;;15.17;60.00
48517;BME280;34310;51.904;4.256;2023-03-20T05:26:22;101904.56;;;15.18;60.17
48517;BME280;34310;51.904;4.256;2023-03-20T05:28:49;101907.97;;;15.17;60.00
48517;BME280;34310;51.904;4.256;2023-03-20T05:31:16;101902.75;;;15.17;60.09
48517;BME280;34310;51.904;4.256;2023-03-20T05:33:44;101901.88;;;15.16;59.92
48517;BME280;34310;51.904;4.256;2023-03-20T05:36:11;101907.06;;;15.16;60.02
48517;BME280;34310;51.904;4.256;2023-03-20T05:38:39;101900.06;;;15.15;60.02
48517;BME280;34310;51.904;4.256;2023-03-20T05:41:06;101907.84;;;15.15;60.02
48517;BME280;34310;51.904;4.256;2023-03-20T05:43:33;101908.66;;;15.14;60.06
48517;BME280;34310;51.904;4.256;2023-03-20T05:46:01;101902.66;;;15.15;59.96
48517;BME280;34310;51.904;4.256;2023-03-20T05:48:28;101907.84;;;15.15;60.01
48517;BME280;34310;51.904;4.256;2023-03-20T05:50:56;101910.34;;;15.14;59.91
48517;BME280;34310;51.904;4.256;2023-03-20T05:53:23;101919.88;;;15.13;59.99
48517;BME280;34310;51.904;4.256;2023-03-20T05:55:50;101915.47;;;15.12;60.03
48517;BME280;34310;51.904;4.256;2023-03-20T05:58:17;101924.16;;;15.13;60.12
48517;BME280;34310;51.904;4.256;2023-03-20T06:00:45;101923.25;;;15.12;59.99
48517;BME280;34310;51.904;4.256;2023-03-20T06:03:12;101927.56;;;15.12;60.13
48517;BME280;34310;51.904;4.256;2023-03-20T06:05:40;101930.16;;;15.12;59.96
48517;BME280;34310;51.904;4.256;2023-03-20T06:08:08;101935.38;;;15.12;60.05
48517;BME280;34310;51.904;4.256;2023-03-20T06:10:35;101937.06;;;15.11;59.92
48517;BME280;34310;51.904;4.256;2023-03-20T06:13:02;101932.66;;;15.10;60.11
48517;BME280;34310;51.904;4.256;2023-03-20T06:15:30;101933.56;;;15.11;60.14
48517;BME280;34310;51.904;4.256;2023-03-20T06:17:57;101937.75;;;15.09;60.08
48517;BME280;34310;51.904;4.256;2023-03-20T06:20:25;101937.75;;;15.09;60.01
48517;BME280;34310;51.904;4.256;2023-03-20T06:22:52;101949.06;;;15.09;59.93
48517;BME280;34310;51.904;4.256;2023-03-20T06:25:19;101945.56;;;15.09;60.07
48517;BME280;34310;51.904;4.256;2023-03-20T06:27:47;101945.56;;;15.09;60.15
48517;BME280;34310;51.904;4.256;2023-03-20T06:30:16;101949.84;;;15.08;60.00
48517;BME280;34310;51.904;4.256;2023-03-20T06:32:43;101950.66;;;15.07;60.10
48517;BME280;34310;51.904;4.256;2023-03-20T06:35:11;101954.16;;;15.08;60.05
48517;BME280;34310;51.904;4.256;2023-03-20T06:37:39;101944.66;;;15.08;60.13
48517;BME280;34310;51.904;4.256;2023-03-20T06:40:07;101953.16;;;15.06;60.01
48517;BME280;34310;51.904;4.256;2023-03-20T06:42:36;101954.06;;;15.06;60.16
48517;BME280;34310;51.904;4.256;2023-03-20T06:45:04;101954.94;;;15.07;60.12
48517;BME280;34310;51.904;4.256;2023-03-20T06:47:31;101957.56;;;15.07;60.01
48517;BME280;34310;51.904;4.256;2023-03-20T06:49:58;101952.25;;;15.05;60.15
48517;BME280;34310;51.904;4.256;2023-03-20T06:52:26;101960.94;;;15.06;60.18
48517;BME280;34310;51.904;4.256;2023-03-20T06:54:53;101970.44;;;15.05;60.08
48517;BME280;34310;51.904;4.256;2023-03-20T06:57:22;101959.16;;;15.05;60.05
48517;BME280;34310;51.904;4.256;2023-03-20T06:59:50;101961.75;;;15.05;60.20
48517;BME280;34310;51.904;4.256;2023-03-20T07:02:17;101961.59;;;15.03;60.12
48517;BME280;34310;51.904;4.256;2023-03-20T07:04:44;101963.44;;;15.04;60.24
48517;BME280;34310;51.904;4.256;2023-03-20T07:07:12;101964.22;;;15.03;60.00
48517;BME280;34310;51.904;4.256;2023-03-20T07:09:40;101966.81;;;15.03;60.21
48517;BME280;34310;51.904;4.256;2023-03-20T07:12:13;101961.59;;;15.03;60.05
48517;BME280;34310;51.904;4.256;2023-03-20T07:14:44;101972.00;;;15.03;60.07
48517;BME280;34310;51.904;4.256;2023-03-20T07:17:12;101963.31;;;15.03;60.12
48517;BME280;34310;51.904;4.256;2023-03-20T07:19:39;101970.19;;;15.02;60.05
48517;BME280;34310;51.904;4.256;2023-03-20T07:22:09;101965.91;;;15.03;60.10
48517;BME280;34310;51.904;4.256;2023-03-20T07:24:44;101979.72;;;15.02;60.11
48517;BME280;34310;51.904;4.256;2023-03-20T07:27:13;101974.50;;;15.02;60.13
48517;BME280;34310;51.904;4.256;2023-03-20T07:29:40;101979.72;;;15.02;60.07
48517;BME280;34310;51.904;4.256;2023-03-20T07:32:08;101977.09;;;15.02;60.21
48517;BME280;34310;51.904;4.256;2023-03-20T07:34:35;101984.91;;;15.02;60.17
48517;BME280;34310;51.904;4.256;2023-03-20T07:37:03;101980.50;;;15.01;60.19
48517;BME280;34310;51.904;4.256;2023-03-20T07:39:31;101984.00;;;15.01;60.14
48517;BME280;34310;51.904;4.256;2023-03-20T07:41:58;101983.00;;;14.99;60.25
48517;BME280;34310;51.904;4.256;2023-03-20T07:44:25;101989.09;;;15.00;60.37
48517;BME280;34310;51.904;4.256;2023-03-20T07:46:52;101985.59;;;14.99;60.20
48517;BME280;34310;51.904;4.256;2023-03-20T07:49:20;101979.50;;;14.99;60.24
48517;BME280;34310;51.904;4.256;2023-03-20T07:51:48;101982.19;;;15.00;60.11
48517;BME280;34310;51.904;4.256;2023-03-20T07:54:16;101979.50;;;14.99;60.26
48517;BME280;34310;51.904;4.256;2023-03-20T07:56:44;101986.50;;;15.00;60.20
48517;BME280;34310;51.904;4.256;2023-03-20T07:59:12;101974.28;;;14.99;60.24
48517;BME280;34310;51.904;4.256;2023-03-20T08:01:39;101980.41;;;14.99;60.29
48517;BME280;34310;51.904;4.256;2023-03-20T08:04:07;101976.88;;;14.99;60.22
48517;BME280;34310;51.904;4.256;2023-03-20T08:06:35;101982.09;;;14.99;60.17
48517;BME280;34310;51.904;4.256;2023-03-20T08:09:06;101976.88;;;14.99;60.34
48517;BME280;34310;51.904;4.256;2023-03-20T08:11:33;101981.97;;;14.97;60.27
48517;BME280;34310;51.904;4.256;2023-03-20T08:14:01;101975.19;;;14.99;60.20
48517;BME280;34310;51.904;4.256;2023-03-20T08:16:28;101978.59;;;14.98;60.20
48517;BME280;34310;51.904;4.256;2023-03-20T08:18:55;101977.69;;;14.98;60.18
48517;BME280;34310;51.904;4.256;2023-03-20T08:21:28;101984.69;;;14.99;60.20
48517;BME280;34310;51.904;4.256;2023-03-20T08:23:56;101976.00;;;14.98;60.32
48517;BME280;34310;51.904;4.256;2023-03-20T08:26:24;101974.28;;;14.99;60.25
48517;BME280;34310;51.904;4.256;2023-03-20T08:28:51;101974.19;;;14.97;60.32
48517;BME280;34310;51.904;4.256;2023-03-20T08:31:19;101971.69;;;14.99;60.28
48517;BME280;34310;51.904;4.256;2023-03-20T08:33:46;101966.38;;;14.97;60.39
48517;BME280;34310;51.904;4.256;2023-03-20T08:36:15;101969.09;;;14.99;60.22
48517;BME280;34310;51.904;4.256;2023-03-20T08:38:46;101965.59;;;14.98;60.36
48517;BME280;34310;51.904;4.256;2023-03-20T08:41:14;101970.00;;;14.99;60.36
48517;BME280;34310;51.904;4.256;2023-03-20T08:43:42;101970.78;;;14.98;60.32
48517;BME280;34310;51.904;4.256;2023-03-20T08:46:10;101968.19;;;14.98;60.29
48517;BME280;34310;51.904;4.256;2023-03-20T08:48:37;101962.97;;;14.98;60.27
48517;BME280;34310;51.904;4.256;2023-03-20T08:51:05;101962.97;;;14.98;60.27
48517;BME280;34310;51.904;4.256;2023-03-20T08:53:33;101969.09;;;14.99;60.32
48517;BME280;34310;51.904;4.256;2023-03-20T08:56:01;101967.38;;;14.99;60.19
48517;BME280;34310;51.904;4.256;2023-03-20T08:58:29;101961.28;;;14.99;60.24
48517;BME280;34310;51.904;4.256;2023-03-20T09:00:56;101963.88;;;14.99;60.26
48517;BME280;34310;51.904;4.256;2023-03-20T09:03:26;101968.19;;;14.98;60.21
48517;BME280;34310;51.904;4.256;2023-03-20T09:05:53;101970.00;;;14.99;60.19
48517;BME280;34310;51.904;4.256;2023-03-20T09:08:21;101967.38;;;14.99;60.11
48517;BME280;34310;51.904;4.256;2023-03-20T09:10:48;101970.78;;;14.98;60.12
48517;BME280;34310;51.904;4.256;2023-03-20T09:13:19;101970.78;;;14.98;60.10
48517;BME280;34310;51.904;4.256;2023-03-20T09:15:55;101976.78;;;14.97;60.07
48517;BME280;34310;51.904;4.256;2023-03-20T09:18:24;101979.38;;;14.97;60.29
48517;BME280;34310;51.904;4.256;2023-03-20T09:20:52;101978.59;;;14.98;60.17
48517;BME280;34310;51.904;4.256;2023-03-20T09:23:19;101975.19;;;14.99;60.25
48517;BME280;34310;51.904;4.256;2023-03-20T09:25:47;101971.69;;;14.99;60.09
48517;BME280;34310;51.904;4.256;2023-03-20T09:28:14;101971.69;;;14.99;60.10
48517;BME280;34310;51.904;4.256;2023-03-20T09:30:42;101977.78;;;14.99;60.05
48517;BME280;34310;51.904;4.256;2023-03-20T09:33:10;101972.59;;;14.99;60.10
48517;BME280;34310;51.904;4.256;2023-03-20T09:35:37;101976.09;;;15.00;60.15
48517;BME280;34310;51.904;4.256;2023-03-20T09:38:07;101976.09;;;15.00;60.17
48517;BME280;34310;51.904;4.256;2023-03-20T09:40:59;101978.69;;;15.00;60.04
48517;BME280;34310;51.904;4.256;2023-03-20T09:43:44;101979.72;;;15.02;60.03
48517;BME280;34310;51.904;4.256;2023-03-20T09:49:01;101971.91;;;15.02;60.09
48517;BME280;34310;51.904;4.256;2023-03-20T09:51:43;101975.41;;;15.02;60.14
48517;BME280;34310;51.904;4.256;2023-03-20T09:54:49;101968.50;;;15.03;60.09
48517;BME280;34310;51.904;4.256;2023-03-20T09:57:30;101972.00;;;15.03;60.14
48517;BME280;34310;51.904;4.256;2023-03-20T10:00:03;101978.00;;;15.02;60.10
48517;BME280;34310;51.904;4.256;2023-03-20T10:03:00;101977.22;;;15.03;60.24
48517;BME280;34310;51.904;4.256;2023-03-20T10:07:58;101970.34;;;15.04;60.29
48517;BME280;34310;51.904;4.256;2023-03-20T10:16:30;101971.34;;;15.06;60.15
48517;BME280;34310;51.904;4.256;2023-03-20T10:21:49;101965.25;;;15.05;60.26
48517;BME280;34310;51.904;4.256;2023-03-20T10:24:45;101967.97;;;15.07;60.09
48517;BME280;34310;51.904;4.256;2023-03-20T10:27:25;101961.84;;;15.06;60.25
48517;BME280;34310;51.904;4.256;2023-03-20T10:38:31;101943.75;;;15.08;59.97
48517;BME280;34310;51.904;4.256;2023-03-20T10:41:06;101948.06;;;15.07;60.19
48517;BME280;34310;51.904;4.256;2023-03-20T10:43:37;101943.75;;;15.08;60.08
48517;BME280;34310;51.904;4.256;2023-03-20T10:46:31;101939.44;;;15.08;60.07
48517;BME280;34310;51.904;4.256;2023-03-20T10:49:28;101941.16;;;15.08;60.00
48517;BME280;34310;51.904;4.256;2023-03-20T10:52:03;101934.34;;;15.10;60.06
48517;BME280;34310;51.904;4.256;2023-03-20T10:54:39;101929.94;;;15.09;60.13
48517;BME280;34310;51.904;4.256;2023-03-20T10:57:18;101931.84;;;15.11;60.05
48517;BME280;34310;51.904;4.256;2023-03-20T10:59:50;101930.06;;;15.10;60.14
48517;BME280;34310;51.904;4.256;2023-03-20T11:02:20;101928.25;;;15.09;60.07
48517;BME280;34310;51.904;4.256;2023-03-20T11:04:49;101925.66;;;15.09;60.25
48517;BME280;34310;51.904;4.256;2023-03-20T11:07:34;101923.16;;;15.11;60.23
48517;BME280;34310;51.904;4.256;2023-03-20T11:10:07;101930.97;;;15.11;60.30
48517;BME280;34310;51.904;4.256;2023-03-20T11:12:46;101925.75;;;15.11;60.30
48517;BME280;34310;51.904;4.256;2023-03-20T11:15:20;101924.97;;;15.12;60.29
48517;BME280;34310;51.904;4.256;2023-03-20T11:17:53;101916.34;;;15.13;60.10
48517;BME280;34310;51.904;4.256;2023-03-20T11:20:21;101920.66;;;15.12;60.21
48517;BME280;34310;51.904;4.256;2023-03-20T11:22:49;101927.66;;;15.13;60.20
48517;BME280;34310;51.904;4.256;2023-03-20T11:25:28;101918.16;;;15.14;60.15
48517;BME280;34310;51.904;4.256;2023-03-20T11:28:17;101919.97;;;15.15;60.36
48517;BME280;34310;51.904;4.256;2023-03-20T11:30:45;101919.16;;;15.16;60.41
48517;BME280;34310;51.904;4.256;2023-03-20T11:33:30;101923.47;;;15.15;60.45
48517;BME280;34310;51.904;4.256;2023-03-20T11:35:59;101919.16;;;15.16;60.35
48517;BME280;34310;51.904;4.256;2023-03-20T11:38:29;101919.16;;;15.16;60.38
48517;BME280;34310;51.904;4.256;2023-03-20T11:40:57;101926.19;;;15.17;60.52
48517;BME280;34310;51.904;4.256;2023-03-20T11:43:26;101919.28;;;15.17;60.60
48517;BME280;34310;51.904;4.256;2023-03-20T11:45:56;101921.88;;;15.17;60.50
48517;BME280;34310;51.904;4.256;2023-03-20T11:48:35;101920.19;;;15.18;60.57
48517;BME280;34310;51.904;4.256;2023-03-20T11:51:23;101916.78;;;15.19;60.56
48517;BME280;34310;51.904;4.256;2023-03-20T11:54:11;101916.88;;;15.21;60.46
48517;BME280;34310;51.904;4.256;2023-03-20T11:56:59;101915.97;;;15.20;60.55
48517;BME280;34310;51.904;4.256;2023-03-20T11:59:32;101905.56;;;15.20;60.58
48517;BME280;34310;51.904;4.256;2023-03-20T12:02:03;101910.78;;;15.20;60.50
48517;BME280;34310;51.904;4.256;2023-03-20T12:04:34;101909.06;;;15.21;60.61
48517;BME280;34310;51.904;4.256;2023-03-20T12:09:47;101911.78;;;15.22;60.56
48517;BME280;34310;51.904;4.256;2023-03-20T12:17:55;101905.69;;;15.22;60.58
48517;BME280;34310;51.904;4.256;2023-03-20T12:25:50;101894.47;;;15.23;60.50
48517;BME280;34310;51.904;4.256;2023-03-20T12:31:41;101895.38;;;15.23;60.49
48517;BME280;34310;51.904;4.256;2023-03-20T12:34:34;101892.78;;;15.23;60.57
48517;BME280;34310;51.904;4.256;2023-03-20T12:37:04;101899.78;;;15.24;60.56
48517;BME280;34310;51.904;4.256;2023-03-20T12:39:47;101888.47;;;15.24;60.61
48517;BME280;34310;51.904;4.256;2023-03-20T12:44:56;101883.28;;;15.24;60.51
48517;BME280;34310;51.904;4.256;2023-03-20T12:47:30;101890.28;;;15.25;60.65
48517;BME280;34310;51.904;4.256;2023-03-20T12:50:25;101879.88;;;15.25;60.73
48517;BME280;34310;51.904;4.256;2023-03-20T12:56:01;101881.56;;;15.24;60.63
48517;BME280;34310;51.904;4.256;2023-03-20T12:59:02;101881.56;;;15.24;60.60
48517;BME280;34310;51.904;4.256;2023-03-20T13:01:51;101878.06;;;15.24;60.60
48517;BME280;34310;51.904;4.256;2023-03-20T13:07:20;101876.38;;;15.24;60.66
48517;BME280;34310;51.904;4.256;2023-03-20T13:09:56;101871.16;;;15.24;60.56
48517;BME280;34310;51.904;4.256;2023-03-20T13:20:55;101865.97;;;15.24;60.74
48517;BME280;34310;51.904;4.256;2023-03-20T13:23:28;101864.16;;;15.23;60.60
48517;BME280;34310;51.904;4.256;2023-03-20T13:31:35;101861.56;;;15.23;60.53
48517;BME280;34310;51.904;4.256;2023-03-20T13:34:26;101858.94;;;15.23;60.62
48517;BME280;34310;51.904;4.256;2023-03-20T13:37:14;101865.06;;;15.24;60.59
48517;BME280;34310;51.904;4.256;2023-03-20T13:42:51;101864.16;;;15.23;60.70
48517;BME280;34310;51.904;4.256;2023-03-20T13:45:35;101858.94;;;15.23;60.50
48517;BME280;34310;51.904;4.256;2023-03-20T13:48:29;101854.53;;;15.22;60.64
48517;BME280;34310;51.904;4.256;2023-03-20T13:54:26;101856.25;;;15.22;60.62
48517;BME280;34310;51.904;4.256;2023-03-20T13:57:06;101846.75;;;15.22;60.60
48517;BME280;34310;51.904;4.256;2023-03-20T13:59:48;101850.13;;;15.21;60.55
48517;BME280;34310;51.904;4.256;2023-03-20T14:02:33;101851.84;;;15.21;60.66
48517;BME280;34310;51.904;4.256;2023-03-20T14:05:22;101854.53;;;15.22;60.67
48517;BME280;34310;51.904;4.256;2023-03-20T14:07:56;101851.94;;;15.22;60.68
48517;BME280;34310;51.904;4.256;2023-03-20T14:13:16;101853.66;;;15.22;60.61
48517;BME280;34310;51.904;4.256;2023-03-20T14:15:49;101847.53;;;15.21;60.49
48517;BME280;34310;51.904;4.256;2023-03-20T14:18:18;101851.03;;;15.22;60.72
48517;BME280;34310;51.904;4.256;2023-03-20T14:20:57;101844.03;;;15.21;60.47
48517;BME280;34310;51.904;4.256;2023-03-20T14:23:42;101838.84;;;15.21;60.55
48517;BME280;34310;51.904;4.256;2023-03-20T14:26:26;101842.25;;;15.19;60.61
48517;BME280;34310;51.904;4.256;2023-03-20T14:28:59;101842.25;;;15.19;60.53
48517;BME280;34310;51.904;4.256;2023-03-20T14:31:32;101832.72;;;15.20;60.61
48517;BME280;34310;51.904;4.256;2023-03-20T14:34:11;101838.84;;;15.21;60.64
48517;BME280;34310;51.904;4.256;2023-03-20T14:53:11;101815.31;;;15.19;60.54
48517;BME280;34310;51.904;4.256;2023-03-20T14:58:56;101810.91;;;15.18;60.63
48517;BME280;34310;51.904;4.256;2023-03-20T15:01:47;101810.91;;;15.18;60.60
48517;BME280;34310;51.904;4.256;2023-03-20T15:09:44;101810.91;;;15.18;60.65
48517;BME280;34310;51.904;4.256;2023-03-20T15:12:14;101816.91;;;15.17;60.59
48517;BME280;34310;51.904;4.256;2023-03-20T15:17:18;101809.13;;;15.17;60.57
48517;BME280;34310;51.904;4.256;2023-03-20T15:19:46;101810.00;;;15.17;60.66
48517;BME280;34310;51.904;4.256;2023-03-20T15:22:18;101813.53;;;15.18;60.59
48517;BME280;34310;51.904;4.256;2023-03-20T15:24:54;101805.63;;;15.16;60.63
48517;BME280;34310;51.904;4.256;2023-03-20T15:27:24;101808.31;;;15.18;60.56
48517;BME280;34310;51.904;4.256;2023-03-20T15:29:54;101817.81;;;15.17;60.55